createdAt,value
2023-02-11T00:01:30.718Z,6.60
2023-02-11T00:04:00.461Z,6.60
2023-02-11T00:06:31.719Z,6.70
2023-02-11T00:09:00.108Z,6.70
2023-02-11T00:11:30.513Z,6.70
2023-02-11T00:13:59.222Z,6.60
2023-02-11T00:16:27.645Z,6.70
2023-02-11T00:18:55.755Z,6.70
2023-02-11T00:21:26.000Z,6.70
2023-02-11T00:23:57.136Z,6.70
2023-02-11T00:26:27.500Z,6.70
2023-02-11T00:28:57.021Z,6.70
2023-02-11T00:31:25.850Z,6.70
2023-02-11T00:33:54.559Z,6.70
2023-02-11T00:36:24.591Z,6.70
2023-02-11T00:38:55.410Z,6.80
2023-02-11T00:41:24.431Z,6.80
2023-02-11T00:43:53.234Z,6.80
2023-02-11T00:46:22.294Z,6.80
2023-02-11T00:48:51.888Z,6.80
2023-02-11T00:51:22.921Z,6.80
2023-02-11T00:53:51.740Z,6.80
2023-02-11T00:56:21.149Z,6.80
2023-02-11T00:58:49.508Z,6.80
2023-02-11T01:01:18.706Z,6.80
2023-02-11T01:03:46.882Z,6.80
2023-02-11T01:06:14.985Z,6.80
2023-02-11T01:08:43.125Z,6.80
2023-02-11T01:11:15.674Z,6.80
2023-02-11T01:13:49.256Z,6.80
2023-02-11T01:16:19.192Z,6.80
2023-02-11T01:18:47.807Z,6.80
2023-02-11T01:21:18.916Z,6.80
2023-02-11T01:23:46.955Z,6.80
2023-02-11T01:26:14.988Z,6.80
2023-02-11T01:28:43.141Z,6.80
2023-02-11T01:31:12.793Z,6.90
2023-02-11T01:33:40.874Z,6.90
2023-02-11T01:36:09.867Z,6.90
2023-02-11T01:38:38.330Z,6.90
2023-02-11T01:41:09.971Z,6.90
2023-02-11T01:43:40.311Z,6.90
2023-02-11T01:46:24.598Z,6.90
2023-02-11T01:48:56.820Z,6.90
2023-02-11T01:51:28.443Z,6.90
2023-02-11T01:54:15.907Z,6.90
2023-02-11T01:57:06.955Z,6.90
2023-02-11T01:59:40.375Z,6.90
2023-02-11T02:02:12.178Z,6.90
2023-02-11T02:04:43.448Z,7.00
2023-02-11T02:07:15.305Z,7.00
2023-02-11T02:09:49.385Z,7.00
2023-02-11T02:12:17.431Z,7.00
2023-02-11T02:14:45.738Z,7.00
2023-02-11T02:17:30.089Z,7.00
2023-02-11T02:20:32.156Z,7.00
2023-02-11T02:23:28.246Z,7.00
2023-02-11T02:26:26.144Z,7.00
2023-02-11T02:29:18.890Z,7.00
2023-02-11T02:32:04.128Z,7.00
2023-02-11T02:34:40.693Z,7.00
2023-02-11T02:37:16.094Z,7.00
2023-02-11T02:39:46.922Z,7.10
2023-02-11T02:42:15.840Z,7.10
2023-02-11T02:44:49.741Z,7.10
2023-02-11T02:47:17.818Z,7.10
2023-02-11T02:49:47.265Z,7.10
2023-02-11T02:52:29.379Z,7.10
2023-02-11T02:55:25.071Z,7.10
2023-02-11T02:58:22.767Z,7.10
2023-02-11T03:00:57.315Z,7.10
2023-02-11T03:03:33.042Z,7.10
2023-02-11T03:06:06.987Z,7.10
2023-02-11T03:08:40.065Z,7.10
2023-02-11T03:11:10.510Z,7.10
2023-02-11T03:13:40.743Z,7.10
2023-02-11T03:16:13.206Z,7.10
2023-02-11T03:18:45.230Z,7.10
2023-02-11T03:21:17.096Z,7.10
2023-02-11T03:23:50.799Z,7.10
2023-02-11T03:26:26.212Z,7.10
2023-02-11T03:28:59.396Z,7.10
2023-02-11T03:31:32.003Z,7.10
2023-02-11T03:34:08.710Z,7.20
2023-02-11T03:36:47.388Z,7.20
2023-02-11T03:39:20.813Z,7.20
2023-02-11T03:41:50.943Z,7.20
2023-02-11T03:44:20.862Z,7.20
2023-02-11T03:46:51.936Z,7.20
2023-02-11T03:49:23.184Z,7.20
2023-02-11T03:51:54.579Z,7.20
2023-02-11T03:54:28.085Z,7.20
2023-02-11T03:56:58.922Z,7.20
2023-02-11T03:59:27.600Z,7.20
2023-02-11T04:01:57.673Z,7.20
2023-02-11T04:04:25.913Z,7.20
2023-02-11T04:06:55.303Z,7.20
2023-02-11T04:09:23.310Z,7.20
2023-02-11T04:11:51.381Z,7.30
2023-02-11T04:14:19.407Z,7.30
2023-02-11T04:16:47.484Z,7.30
2023-02-11T04:19:15.598Z,7.30
2023-02-11T04:21:43.587Z,7.30
2023-02-11T04:24:13.008Z,7.30
2023-02-11T04:26:41.037Z,7.30
2023-02-11T04:29:09.047Z,7.30
2023-02-11T04:31:37.131Z,7.30
2023-02-11T04:34:05.159Z,7.30
2023-02-11T04:36:33.227Z,7.30
2023-02-11T04:39:01.776Z,7.30
2023-02-11T04:41:31.272Z,7.30
2023-02-11T04:43:59.391Z,7.30
2023-02-11T04:46:27.514Z,7.30
2023-02-11T04:48:55.545Z,7.30
2023-02-11T04:51:23.865Z,7.30
2023-02-11T04:53:51.870Z,7.30
2023-02-11T04:56:19.887Z,7.30
2023-02-11T04:58:49.224Z,7.30
2023-02-11T05:01:17.890Z,7.30
2023-02-11T05:03:46.041Z,7.30
2023-02-11T05:06:14.151Z,7.30
2023-02-11T05:08:42.227Z,7.30
2023-02-11T05:11:16.847Z,7.40
2023-02-11T05:13:45.190Z,7.40
2023-02-11T05:16:15.176Z,7.40
2023-02-11T05:18:44.846Z,7.40
2023-02-11T05:21:15.790Z,7.40
2023-02-11T05:23:44.507Z,7.40
2023-02-11T05:26:13.446Z,7.40
2023-02-11T05:28:42.316Z,7.40
2023-02-11T05:31:11.054Z,7.40
2023-02-11T05:33:40.503Z,7.40
2023-02-11T05:36:10.798Z,7.40
2023-02-11T05:38:39.386Z,7.40
2023-02-11T05:41:08.019Z,7.40
2023-02-11T05:43:36.636Z,7.40
2023-02-11T05:46:05.758Z,7.40
2023-02-11T05:48:34.005Z,7.40
2023-02-11T05:51:03.579Z,7.40
2023-02-11T05:53:31.742Z,7.40
2023-02-11T05:55:59.773Z,7.40
2023-02-11T05:58:27.802Z,7.40
2023-02-11T06:00:55.876Z,7.40
2023-02-11T06:03:23.984Z,7.40
2023-02-11T06:05:52.251Z,7.40
2023-02-11T06:08:21.827Z,7.40
2023-02-11T06:10:49.812Z,7.40
2023-02-11T06:13:18.640Z,7.40
2023-02-11T06:15:47.173Z,7.40
2023-02-11T06:18:15.240Z,7.40
2023-02-11T06:20:43.244Z,7.40
2023-02-11T06:23:11.323Z,7.40
2023-02-11T06:25:40.681Z,7.40
2023-02-11T06:28:10.381Z,7.40
2023-02-11T06:30:38.734Z,7.40
2023-02-11T06:33:06.942Z,7.40
2023-02-11T06:35:35.323Z,7.40
2023-02-11T06:38:03.755Z,7.40
2023-02-11T06:40:31.756Z,7.40
2023-02-11T06:43:01.150Z,7.40
2023-02-11T06:45:29.298Z,7.40
2023-02-11T06:47:57.398Z,7.40
2023-02-11T06:50:25.459Z,7.40
2023-02-11T06:52:53.616Z,7.40
2023-02-11T06:55:21.700Z,7.40
2023-02-11T06:57:50.004Z,7.40
2023-02-11T07:00:20.290Z,7.40
2023-02-11T07:02:48.426Z,7.40
2023-02-11T07:05:16.570Z,7.40
2023-02-11T07:07:44.633Z,7.40
2023-02-11T07:10:12.706Z,7.40
2023-02-11T07:12:41.252Z,7.40
2023-02-11T07:15:09.840Z,7.40
2023-02-11T07:17:39.310Z,7.40
2023-02-11T07:20:08.831Z,7.50
2023-02-11T07:22:37.378Z,7.50
2023-02-11T07:25:05.889Z,7.50
2023-02-11T07:27:34.073Z,7.50
2023-02-11T07:30:02.160Z,7.50
2023-02-11T07:32:30.226Z,7.50
2023-02-11T07:34:59.624Z,7.60
2023-02-11T07:37:28.197Z,7.60
2023-02-11T07:39:56.329Z,7.60
2023-02-11T07:42:24.446Z,7.60
2023-02-11T07:44:52.496Z,7.60
2023-02-11T07:47:20.537Z,7.60
2023-02-11T07:49:48.741Z,7.70
2023-02-11T07:52:18.183Z,7.70
2023-02-11T07:54:46.394Z,7.70
2023-02-11T07:57:14.442Z,7.70
2023-02-11T07:59:42.464Z,7.70
2023-02-11T08:02:10.539Z,7.70
2023-02-11T08:04:38.696Z,7.70
2023-02-11T08:07:06.890Z,7.70
2023-02-11T08:09:36.299Z,7.70
2023-02-11T08:12:04.556Z,7.80
2023-02-11T08:14:33.663Z,7.80
2023-02-11T08:17:01.848Z,7.80
2023-02-11T08:19:30.092Z,7.80
2023-02-11T08:21:59.177Z,7.80
2023-02-11T08:24:27.235Z,7.90
2023-02-11T08:26:56.856Z,7.90
2023-02-11T08:29:25.123Z,7.90
2023-02-11T08:31:53.252Z,7.90
2023-02-11T08:34:22.004Z,8.00
2023-02-11T08:36:50.331Z,8.00
2023-02-11T08:39:22.973Z,8.00
2023-02-11T08:41:53.885Z,8.00
2023-02-11T08:44:24.353Z,8.00
2023-02-11T08:46:52.956Z,8.00
2023-02-11T08:49:22.144Z,8.10
2023-02-11T08:51:51.528Z,8.10
2023-02-11T08:54:19.702Z,8.10
2023-02-11T08:56:51.567Z,8.10
2023-02-11T08:59:19.655Z,8.10
2023-02-11T09:01:49.404Z,8.10
2023-02-11T09:04:17.649Z,8.20
2023-02-11T09:06:46.118Z,8.20
2023-02-11T09:09:16.229Z,8.20
2023-02-11T09:11:45.956Z,8.20
2023-02-11T09:14:19.357Z,8.20
2023-02-11T09:16:49.719Z,8.20
2023-02-11T09:19:18.688Z,8.20
2023-02-11T09:21:47.043Z,8.20
2023-02-11T09:24:15.282Z,8.30
2023-02-11T09:26:44.133Z,8.30
2023-02-11T09:29:12.355Z,8.30
2023-02-11T09:31:40.488Z,8.30
2023-02-11T09:34:11.594Z,8.30
2023-02-11T09:36:41.792Z,8.30
2023-02-11T09:39:13.768Z,8.30
2023-02-11T09:42:12.127Z,8.30
2023-02-11T09:44:40.734Z,8.40
2023-02-11T09:47:27.933Z,8.40
2023-02-11T09:50:01.763Z,8.40
2023-02-11T09:52:38.524Z,8.40
2023-02-11T09:55:15.917Z,8.40
2023-02-11T09:57:43.990Z,8.40
2023-02-11T10:00:23.802Z,8.50
2023-02-11T10:03:38.541Z,8.50
2023-02-11T10:06:29.412Z,8.50
2023-02-11T10:09:07.178Z,8.50
2023-02-11T10:11:47.512Z,8.50
2023-02-11T10:14:32.604Z,8.50
2023-02-11T10:17:11.092Z,8.60
2023-02-11T10:19:52.347Z,8.60
2023-02-11T10:22:26.755Z,8.60
2023-02-11T10:24:58.334Z,8.60
2023-02-11T10:27:30.529Z,8.60
2023-02-11T10:30:03.180Z,8.60
2023-02-11T10:32:38.718Z,8.60
2023-02-11T10:35:16.205Z,8.60
2023-02-11T10:37:46.282Z,8.60
2023-02-11T10:40:16.554Z,8.60
2023-02-11T10:42:48.789Z,8.60
2023-02-11T10:45:23.266Z,8.70
2023-02-11T10:47:51.399Z,8.60
2023-02-11T10:50:24.131Z,8.60
2023-02-11T10:52:53.685Z,8.60
2023-02-11T10:55:27.782Z,8.70
2023-02-11T10:57:59.064Z,8.70
2023-02-11T11:00:37.884Z,8.70
2023-02-11T11:03:08.910Z,8.70
2023-02-11T11:05:39.462Z,8.80
2023-02-11T11:08:10.688Z,8.80
2023-02-11T11:10:44.292Z,8.80
2023-02-11T11:13:32.126Z,8.80
2023-02-11T11:16:18.597Z,8.80
2023-02-11T11:18:48.618Z,8.90
2023-02-11T11:21:21.058Z,8.80
2023-02-11T11:23:54.859Z,8.80
2023-02-11T11:26:23.958Z,8.90
2023-02-11T11:28:58.686Z,8.90
2023-02-11T11:31:31.565Z,8.90
2023-02-11T11:34:02.125Z,8.90
2023-02-11T11:36:37.684Z,8.90
2023-02-11T11:39:21.638Z,9.00
2023-02-11T11:41:55.740Z,9.00
2023-02-11T11:44:30.250Z,9.00
2023-02-11T11:47:23.564Z,9.00
2023-02-11T11:50:12.992Z,9.00
2023-02-11T11:52:47.750Z,9.00
2023-02-11T11:55:21.659Z,9.00
2023-02-11T11:57:50.551Z,9.00
2023-02-11T12:00:21.006Z,9.00
2023-02-11T12:03:25.933Z,9.00
2023-02-11T12:06:08.854Z,9.10
2023-02-11T12:08:48.388Z,9.10
2023-02-11T12:11:27.062Z,9.10
2023-02-11T12:14:08.456Z,9.10
2023-02-11T12:16:45.646Z,9.10
2023-02-11T12:20:00.544Z,9.20
2023-02-11T12:22:42.414Z,9.10
2023-02-11T12:25:26.239Z,9.20
2023-02-11T12:28:04.770Z,9.20
2023-02-11T12:30:50.841Z,9.20
2023-02-11T12:33:33.846Z,9.30
2023-02-11T12:36:09.285Z,9.30
2023-02-11T12:38:52.200Z,9.30
2023-02-11T12:42:04.497Z,9.40
2023-02-11T12:44:42.857Z,9.40
2023-02-11T12:47:18.970Z,9.50
2023-02-11T12:50:05.205Z,9.50
2023-02-11T12:52:45.855Z,9.50
2023-02-11T12:55:22.073Z,9.50
2023-02-11T12:57:51.480Z,9.50
2023-02-11T13:00:24.802Z,9.60
2023-02-11T13:02:57.711Z,9.60
2023-02-11T13:05:30.495Z,9.60
2023-02-11T13:08:05.729Z,9.60
2023-02-11T13:10:36.390Z,9.60
2023-02-11T13:13:19.208Z,9.70
2023-02-11T13:15:52.930Z,9.70
2023-02-11T13:18:49.310Z,9.70
2023-02-11T13:21:30.714Z,9.70
2023-02-11T13:24:09.320Z,9.80
2023-02-11T13:26:44.091Z,9.80
2023-02-11T13:29:21.973Z,9.80
2023-02-11T13:32:06.998Z,9.80
2023-02-11T13:35:00.107Z,9.80
2023-02-11T13:37:33.039Z,9.80
2023-02-11T13:40:02.644Z,9.80
2023-02-11T13:42:32.112Z,9.80
2023-02-11T13:45:00.458Z,9.80
2023-02-11T13:47:33.508Z,9.80
2023-02-11T13:50:03.561Z,9.80
2023-02-11T13:52:37.298Z,9.80
2023-02-11T13:55:10.910Z,9.90
2023-02-11T13:57:40.912Z,9.90
2023-02-11T14:00:49.293Z,9.90
2023-02-11T14:03:45.920Z,9.90
2023-02-11T14:06:35.667Z,9.90
2023-02-11T14:09:28.921Z,9.90
2023-02-11T14:12:35.072Z,9.90
2023-02-11T14:15:24.115Z,9.90
2023-02-11T14:17:52.472Z,10.00
2023-02-11T14:20:44.660Z,10.00
2023-02-11T14:23:27.221Z,10.00
2023-02-11T14:26:07.310Z,9.90
2023-02-11T14:28:36.111Z,9.90
2023-02-11T14:31:10.622Z,9.90
2023-02-11T14:34:05.071Z,9.90
2023-02-11T14:36:59.429Z,9.90
2023-02-11T14:39:41.525Z,9.90
2023-02-11T14:42:18.907Z,9.90
2023-02-11T14:44:49.572Z,9.90
2023-02-11T14:47:21.997Z,9.90
2023-02-11T14:49:50.773Z,9.90
2023-02-11T14:52:27.714Z,9.90
2023-02-11T14:55:08.003Z,10.00
2023-02-11T14:57:37.829Z,10.00
2023-02-11T15:00:15.439Z,9.90
2023-02-11T15:02:45.179Z,10.00
2023-02-11T15:05:22.689Z,10.00
2023-02-11T15:07:54.480Z,10.00
2023-02-11T15:10:30.107Z,10.10
2023-02-11T15:13:00.201Z,10.10
2023-02-11T15:15:29.433Z,10.10
2023-02-11T15:18:02.001Z,10.10
2023-02-11T15:20:33.377Z,10.10
2023-02-11T15:23:05.429Z,10.10
2023-02-11T15:25:34.357Z,10.10
2023-02-11T15:28:02.688Z,10.00
2023-02-11T15:30:34.106Z,10.00
2023-02-11T15:33:05.406Z,10.00
2023-02-11T15:35:36.783Z,10.00
2023-02-11T15:38:06.678Z,10.00
2023-02-11T15:40:36.943Z,10.00
2023-02-11T15:43:06.608Z,10.00
2023-02-11T15:45:36.250Z,10.00
2023-02-11T15:48:10.655Z,9.90
2023-02-11T15:50:40.916Z,9.90
2023-02-11T15:53:23.326Z,9.90
2023-02-11T15:55:53.896Z,9.90
2023-02-11T15:58:23.866Z,9.90
2023-02-11T16:00:59.620Z,9.90
2023-02-11T16:03:32.524Z,9.90
2023-02-11T16:06:19.957Z,9.90
2023-02-11T16:09:04.675Z,9.90
2023-02-11T16:11:34.179Z,9.80
2023-02-11T16:14:06.594Z,9.80
2023-02-11T16:16:36.313Z,9.80
2023-02-11T16:19:06.633Z,9.80
2023-02-11T16:21:39.267Z,9.80
2023-02-11T16:24:17.135Z,9.80
2023-02-11T16:26:49.817Z,9.80
2023-02-11T16:29:21.964Z,9.80
2023-02-11T16:31:50.994Z,9.80
2023-02-11T16:37:07.572Z,9.70
2023-02-11T16:39:37.038Z,9.70
2023-02-11T16:42:07.623Z,9.70
2023-02-11T16:44:36.396Z,9.70
2023-02-11T16:47:07.732Z,9.70
2023-02-11T16:49:39.025Z,9.70
2023-02-11T16:52:08.836Z,9.70
2023-02-11T16:54:38.256Z,9.70
2023-02-11T16:57:14.478Z,9.60
2023-02-11T16:59:42.696Z,9.60
2023-02-11T17:02:16.090Z,9.60
2023-02-11T17:04:45.066Z,9.60
2023-02-11T17:07:13.327Z,9.60
2023-02-11T17:09:42.967Z,9.60
2023-02-11T17:12:11.650Z,9.60
2023-02-11T17:14:39.914Z,9.60
2023-02-11T17:17:08.035Z,9.60
2023-02-11T17:19:36.130Z,9.60
2023-02-11T17:22:04.879Z,9.50
2023-02-11T17:24:33.034Z,9.50
2023-02-11T17:27:02.652Z,9.50
2023-02-11T17:29:30.729Z,9.50
2023-02-11T17:31:58.870Z,9.50
2023-02-11T17:34:29.196Z,9.50
2023-02-11T17:36:57.934Z,9.50
2023-02-11T17:39:26.014Z,9.50
2023-02-11T17:41:54.205Z,9.50
2023-02-11T17:44:23.612Z,9.50
2023-02-11T17:46:51.682Z,9.40
2023-02-11T17:49:20.086Z,9.40
2023-02-11T17:51:48.754Z,9.40
2023-02-11T17:54:18.916Z,9.40
2023-02-11T17:56:50.498Z,9.40
2023-02-11T17:59:18.916Z,9.40
2023-02-11T18:01:48.822Z,9.40
2023-02-11T18:04:19.043Z,9.40
2023-02-11T18:06:47.796Z,9.40
2023-02-11T18:09:15.803Z,9.40
2023-02-11T18:11:43.866Z,9.40
2023-02-11T18:14:12.436Z,9.30
2023-02-11T18:16:42.983Z,9.30
2023-02-11T18:19:13.408Z,9.30
2023-02-11T18:21:41.561Z,9.30
2023-02-11T18:24:10.193Z,9.30
2023-02-11T18:26:38.355Z,9.30
2023-02-11T18:29:07.255Z,9.30
2023-02-11T18:31:36.355Z,9.30
2023-02-11T18:34:05.753Z,9.30
2023-02-11T18:36:35.498Z,9.30
2023-02-11T18:39:04.865Z,9.30
2023-02-11T18:41:33.025Z,9.20
2023-02-11T18:44:03.057Z,9.20
2023-02-11T18:46:31.658Z,9.20
2023-02-11T18:48:59.720Z,9.20
2023-02-11T18:51:27.891Z,9.20
2023-02-11T18:53:57.466Z,9.20
2023-02-11T18:56:27.679Z,9.20
2023-02-11T18:58:57.247Z,9.20
2023-02-11T19:01:27.825Z,9.20
2023-02-11T19:03:57.298Z,9.20
2023-02-11T19:06:27.716Z,9.20
2023-02-11T19:08:59.907Z,9.20
2023-02-11T19:11:43.192Z,9.20
2023-02-11T19:14:11.606Z,9.20
2023-02-11T19:16:40.386Z,9.10
2023-02-11T19:19:09.279Z,9.20
2023-02-11T19:21:37.832Z,9.10
2023-02-11T19:24:08.959Z,9.10
2023-02-11T19:26:37.856Z,9.10
2023-02-11T19:29:06.777Z,9.10
2023-02-11T19:31:35.689Z,9.10
2023-02-11T19:34:04.856Z,9.10
2023-02-11T19:36:33.066Z,9.10
2023-02-11T19:39:02.137Z,9.10
2023-02-11T19:41:33.521Z,9.10
2023-02-11T19:44:02.370Z,9.10
2023-02-11T19:46:34.913Z,9.10
2023-02-11T19:49:03.612Z,9.10
2023-02-11T19:51:33.475Z,9.10
2023-02-11T19:54:01.678Z,9.10
2023-02-11T19:56:31.160Z,9.10
2023-02-11T19:58:59.451Z,9.10
2023-02-11T20:01:27.899Z,9.10
2023-02-11T20:03:57.875Z,9.00
2023-02-11T20:06:28.740Z,9.00
2023-02-11T20:08:58.821Z,9.00
2023-02-11T20:11:28.334Z,9.00
2023-02-11T20:13:58.442Z,9.00
2023-02-11T20:16:44.694Z,9.00
2023-02-11T20:19:17.800Z,9.00
2023-02-11T20:21:48.039Z,9.00
2023-02-11T20:24:16.354Z,9.00
2023-02-11T20:26:45.232Z,9.00
2023-02-11T20:29:15.261Z,9.00
2023-02-11T20:31:43.794Z,9.00
2023-02-11T20:34:12.902Z,9.00
2023-02-11T20:36:41.178Z,9.00
2023-02-11T20:39:09.725Z,9.00
2023-02-11T20:41:39.994Z,9.00
2023-02-11T20:44:11.204Z,9.00
2023-02-11T20:46:42.604Z,9.00
2023-02-11T20:49:12.302Z,9.00
2023-02-11T20:51:41.212Z,8.90
2023-02-11T20:54:13.336Z,9.00
2023-02-11T20:56:41.574Z,8.90
2023-02-11T20:59:10.060Z,8.90
2023-02-11T21:01:41.229Z,8.90
2023-02-11T21:04:12.465Z,8.90
2023-02-11T21:06:43.005Z,8.90
2023-02-11T21:09:14.581Z,8.80
2023-02-11T21:11:43.269Z,8.80
2023-02-11T21:14:12.284Z,8.80
2023-02-11T21:16:42.713Z,8.80
2023-02-11T21:19:10.862Z,8.80
2023-02-11T21:21:39.804Z,8.80
2023-02-11T21:24:09.199Z,8.80
2023-02-11T21:26:38.159Z,8.70
2023-02-11T21:29:07.389Z,8.70
2023-02-11T21:31:36.810Z,8.70
2023-02-11T21:34:06.785Z,8.70
2023-02-11T21:36:35.337Z,8.70
2023-02-11T21:39:04.192Z,8.70
2023-02-11T21:41:32.722Z,8.70
2023-02-11T21:44:00.764Z,8.70
2023-02-11T21:46:29.449Z,8.70
2023-02-11T21:48:58.186Z,8.70
2023-02-11T21:51:27.857Z,8.60
2023-02-11T21:53:56.522Z,8.60
2023-02-11T21:56:26.311Z,8.60
2023-02-11T21:58:55.959Z,8.60
2023-02-11T22:01:25.983Z,8.60
2023-02-11T22:03:54.451Z,8.60
2023-02-11T22:06:26.128Z,8.60
2023-02-11T22:08:56.134Z,8.60
2023-02-11T22:11:25.440Z,8.60
2023-02-11T22:13:55.260Z,8.60
2023-02-11T22:16:23.784Z,8.60
2023-02-11T22:18:51.973Z,8.60
2023-02-11T22:21:21.930Z,8.60
2023-02-11T22:23:50.798Z,8.60
2023-02-11T22:26:22.704Z,8.60
2023-02-11T22:28:51.620Z,8.60
2023-02-11T22:31:22.963Z,8.50
2023-02-11T22:33:51.551Z,8.50
2023-02-11T22:36:22.089Z,8.50
2023-02-11T22:38:51.277Z,8.50
2023-02-11T22:41:21.503Z,8.50
2023-02-11T22:43:49.591Z,8.50
2023-02-11T22:46:19.219Z,8.50
2023-02-11T22:48:48.603Z,8.50
2023-02-11T22:51:19.322Z,8.50
2023-02-11T22:53:51.018Z,8.50
2023-02-11T22:56:21.051Z,8.50
2023-02-11T22:58:49.478Z,8.50
2023-02-11T23:01:18.117Z,8.50
2023-02-11T23:03:46.980Z,8.50
2023-02-11T23:06:15.395Z,8.40
2023-02-11T23:08:43.929Z,8.50
2023-02-11T23:11:14.792Z,8.50
2023-02-11T23:13:45.809Z,8.40
2023-02-11T23:16:16.327Z,8.50
2023-02-11T23:18:46.434Z,8.40
2023-02-11T23:21:17.827Z,8.40
2023-02-11T23:23:46.699Z,8.40
2023-02-11T23:26:16.962Z,8.40
2023-02-11T23:28:47.413Z,8.40
2023-02-11T23:31:18.890Z,8.40
2023-02-11T23:33:48.511Z,8.40
2023-02-11T23:36:17.630Z,8.40
2023-02-11T23:38:46.353Z,8.40
2023-02-11T23:41:15.477Z,8.40
2023-02-11T23:43:43.941Z,8.40
2023-02-11T23:46:13.444Z,8.40
2023-02-11T23:48:41.586Z,8.40
2023-02-11T23:51:10.655Z,8.40
2023-02-11T23:53:40.565Z,8.40
2023-02-11T23:56:10.936Z,8.40
2023-02-11T23:58:39.256Z,8.30
